sensor_id;sensor_type;location;lat;lon;timestamp;pressure;altitude;pressure_sealevel;temperature;humidity
30636;BME280;17400;52.392;9.750;2023-02-12T09:05:19;103196.81;;;8.24;100.00
30636;BME280;17400;52.392;9.750;2023-02-12T09:07:47;103205.28;;;8.19;100.00
30636;BME280;17400;52.392;9.750;2023-02-12T09:10:16;103203.56;;;8.29;100.00
30636;BME280;17400;52.392;9.750;2023-02-12T09:12:44;103205.31;;;8.42;100.00
30636;BME280;17400;52.392;9.750;2023-02-12T09:15:11;103207.19;;;8.53;100.00
30636;BME280;17400;52.392;9.750;2023-02-12T09:17:39;103208.66;;;8.57;100.00
30636;BME280;17400;52.392;9.750;2023-02-12T09:20:10;103212.66;;;8.40;100.00
30636;BME280;17400;52.392;9.750;2023-02-12T09:22:39;103216.56;;;8.36;100.00
30636;BME280;17400;52.392;9.750;2023-02-12T09:25:07;103217.47;;;8.36;100.00
30636;BME280;17400;52.392;9.750;2023-02-12T09:27:37;103215.34;;;8.40;100.00
30636;BME280;17400;52.392;9.750;2023-02-12T09:30:06;103213.16;;;8.33;100.00
30636;BME280;17400;52.392;9.750;2023-02-12T09:32:34;103213.53;;;8.40;100.00
30636;BME280;17400;52.392;9.750;2023-02-12T09:35:02;103214.38;;;8.41;100.00
30636;BME280;17400;52.392;9.750;2023-02-12T09:37:30;103215.47;;;8.38;100.00
30636;BME280;17400;52.392;9.750;2023-02-12T09:39:59;103222.59;;;8.39;100.00
30636;BME280;17400;52.392;9.750;2023-02-12T09:42:42;103228.13;;;8.38;100.00
30636;BME280;17400;52.392;9.750;2023-02-12T09:45:21;103226.03;;;8.41;100.00
30636;BME280;17400;52.392;9.750;2023-02-12T09:47:53;103227.75;;;8.42;100.00
30636;BME280;17400;52.392;9.750;2023-02-12T09:50:32;103227.31;;;8.48;100.00
30636;BME280;17400;52.392;9.750;2023-02-12T09:53:04;103226.94;;;8.53;100.00
30636;BME280;17400;52.392;9.750;2023-02-12T09:55:37;103239.09;;;8.59;100.00
30636;BME280;17400;52.392;9.750;2023-02-12T09:58:12;103230.63;;;8.63;100.00
30636;BME280;17400;52.392;9.750;2023-02-12T10:00:41;103237.88;;;8.63;100.00
30636;BME280;17400;52.392;9.750;2023-02-12T10:03:13;103230.63;;;8.63;100.00
30636;BME280;17400;52.392;9.750;2023-02-12T10:05:50;103230.75;;;8.62;100.00
30636;BME280;17400;52.392;9.750;2023-02-12T10:08:34;103238.13;;;8.71;100.00
30636;BME280;17400;52.392;9.750;2023-02-12T10:11:28;103229.66;;;8.64;100.00
30636;BME280;17400;52.392;9.750;2023-02-12T10:14:08;103240.81;;;8.71;100.00
30636;BME280;17400;52.392;9.750;2023-02-12T10:16:46;103244.72;;;8.78;100.00
30636;BME280;17400;52.392;9.750;2023-02-12T10:19:27;103249.41;;;8.76;100.00
30636;BME280;17400;52.392;9.750;2023-02-12T10:22:03;103246.19;;;8.60;100.00
30636;BME280;17400;52.392;9.750;2023-02-12T10:24:53;103247.91;;;8.61;100.00
30636;BME280;17400;52.392;9.750;2023-02-12T10:27:37;103255.41;;;8.69;100.00
30636;BME280;17400;52.392;9.750;2023-02-12T10:30:15;103250.88;;;8.69;100.00
30636;BME280;17400;52.392;9.750;2023-02-12T10:32:45;103251.88;;;8.68;100.00
30636;BME280;17400;52.392;9.750;2023-02-12T10:35:16;103241.06;;;8.68;100.00
30636;BME280;17400;52.392;9.750;2023-02-12T10:37:48;103240.81;;;8.71;100.00
30636;BME280;17400;52.392;9.750;2023-02-12T10:40:22;103251.63;;;8.82;100.00
30636;BME280;17400;52.392;9.750;2023-02-12T10:42:53;103240.56;;;8.86;100.00
30636;BME280;17400;52.392;9.750;2023-02-12T10:45:25;103245.59;;;8.79;100.00
30636;BME280;17400;52.392;9.750;2023-02-12T10:48:03;103240.06;;;8.80;100.00
30636;BME280;17400;52.392;9.750;2023-02-12T10:50:40;103245.00;;;8.87;100.00
30636;BME280;17400;52.392;9.750;2023-02-12T10:53:15;103242.66;;;8.93;100.00
30636;BME280;17400;52.392;9.750;2023-02-12T10:55:48;103238.59;;;8.99;100.00
30636;BME280;17400;52.392;9.750;2023-02-12T10:58:20;103233.44;;;8.84;100.00
30636;BME280;17400;52.392;9.750;2023-02-12T11:00:55;103242.78;;;8.80;100.00
30636;BME280;17400;52.392;9.750;2023-02-12T11:03:28;103239.34;;;8.90;100.00
30636;BME280;17400;52.392;9.750;2023-02-12T11:06:12;103238.34;;;8.91;100.00
30636;BME280;17400;52.392;9.750;2023-02-12T11:08:41;103235.53;;;8.92;100.00
30636;BME280;17400;52.392;9.750;2023-02-12T11:11:11;103232.81;;;8.92;100.00
30636;BME280;17400;52.392;9.750;2023-02-12T11:13:45;103232.69;;;8.94;100.00
30636;BME280;17400;52.392;9.750;2023-02-12T11:16:26;103223.38;;;8.75;100.00
30636;BME280;17400;52.392;9.750;2023-02-12T11:18:57;103227.69;;;8.78;100.00
30636;BME280;17400;52.392;9.750;2023-02-12T11:21:26;103239.09;;;8.81;100.00
30636;BME280;17400;52.392;9.750;2023-02-12T11:23:53;103226.94;;;8.87;100.00
30636;BME280;17400;52.392;9.750;2023-02-12T11:26:24;103228.16;;;8.94;100.00
30636;BME280;17400;52.392;9.750;2023-02-12T11:28:57;103227.16;;;8.95;100.00
30636;BME280;17400;52.392;9.750;2023-02-12T11:31:27;103212.19;;;9.03;100.00
30636;BME280;17400;52.392;9.750;2023-02-12T11:34:08;103215.25;;;9.09;100.00
30636;BME280;17400;52.392;9.750;2023-02-12T11:36:38;103218.66;;;9.11;100.00
30636;BME280;17400;52.392;9.750;2023-02-12T11:39:18;103211.56;;;9.10;100.00
30636;BME280;17400;52.392;9.750;2023-02-12T11:41:50;103216.97;;;9.10;100.00
30636;BME280;17400;52.392;9.750;2023-02-12T11:44:22;103211.31;;;9.13;100.00
30636;BME280;17400;52.392;9.750;2023-02-12T11:46:54;103206.66;;;9.15;100.00
30636;BME280;17400;52.392;9.750;2023-02-12T11:49:27;103204.91;;;9.14;100.00
30636;BME280;17400;52.392;9.750;2023-02-12T11:51:56;103207.34;;;9.17;100.00
30636;BME280;17400;52.392;9.750;2023-02-12T11:54:28;103213.75;;;9.16;100.00
30636;BME280;17400;52.392;9.750;2023-02-12T11:56:59;103210.69;;;9.10;100.00
30636;BME280;17400;52.392;9.750;2023-02-12T11:59:33;103207.63;;;9.14;100.00
30636;BME280;17400;52.392;9.750;2023-02-12T12:02:13;103205.63;;;9.16;100.00
30636;BME280;17400;52.392;9.750;2023-02-12T12:04:45;103198.00;;;9.22;100.00
30636;BME280;17400;52.392;9.750;2023-02-12T12:07:20;103196.28;;;9.21;100.00
30636;BME280;17400;52.392;9.750;2023-02-12T12:09:57;103199.38;;;9.16;100.00
30636;BME280;17400;52.392;9.750;2023-02-12T12:12:34;103202.72;;;9.08;100.00
30636;BME280;17400;52.392;9.750;2023-02-12T12:15:11;103198.06;;;9.10;100.00
30636;BME280;17400;52.392;9.750;2023-02-12T12:18:08;103193.84;;;9.17;100.00
30636;BME280;17400;52.392;9.750;2023-02-12T12:21:02;103191.69;;;9.00;100.00
30636;BME280;17400;52.392;9.750;2023-02-12T12:23:36;103188.72;;;9.03;100.00
30636;BME280;17400;52.392;9.750;2023-02-12T12:26:11;103189.06;;;9.10;100.00
30636;BME280;17400;52.392;9.750;2023-02-12T12:28:44;103196.28;;;9.21;100.00
30636;BME280;17400;52.392;9.750;2023-02-12T12:31:17;103188.84;;;9.13;100.00
30636;BME280;17400;52.392;9.750;2023-02-12T12:33:49;103190.88;;;9.21;100.00
30636;BME280;17400;52.392;9.750;2023-02-12T12:39:26;103181.78;;;9.22;100.00
30636;BME280;17400;52.392;9.750;2023-02-12T12:42:10;103179.56;;;9.27;100.00
30636;BME280;17400;52.392;9.750;2023-02-12T12:44:56;103180.81;;;9.23;100.00
30636;BME280;17400;52.392;9.750;2023-02-12T12:47:37;103176.66;;;9.19;100.00
30636;BME280;17400;52.392;9.750;2023-02-12T12:50:22;103173.97;;;9.07;100.00
30636;BME280;17400;52.392;9.750;2023-02-12T12:53:06;103176.03;;;9.15;100.00
30636;BME280;17400;52.392;9.750;2023-02-12T12:55:47;103169.91;;;9.13;100.00
30636;BME280;17400;52.392;9.750;2023-02-12T12:58:25;103170.97;;;9.22;100.00
30636;BME280;17400;52.392;9.750;2023-02-12T13:01:09;103164.50;;;9.13;100.00
30636;BME280;17400;52.392;9.750;2023-02-12T13:06:52;103163.63;;;9.24;100.00
30636;BME280;17400;52.392;9.750;2023-02-12T13:12:43;103161.00;;;9.33;100.00
30636;BME280;17400;52.392;9.750;2023-02-12T13:15:25;103156.91;;;9.39;100.00
30636;BME280;17400;52.392;9.750;2023-02-12T13:18:03;103153.09;;;9.42;100.00
30636;BME280;17400;52.392;9.750;2023-02-12T13:20:41;103152.84;;;9.45;100.00
30636;BME280;17400;52.392;9.750;2023-02-12T13:23:15;103150.03;;;9.35;100.00
30636;BME280;17400;52.392;9.750;2023-02-12T13:25:56;103150.91;;;9.36;100.00
30636;BME280;17400;52.392;9.750;2023-02-12T13:28:32;103152.09;;;9.43;100.00
30636;BME280;17400;52.392;9.750;2023-02-12T13:31:07;103148.84;;;9.28;100.00
30636;BME280;17400;52.392;9.750;2023-02-12T13:33:58;103154.34;;;9.38;100.00
30636;BME280;17400;52.392;9.750;2023-02-12T13:36:29;103159.50;;;9.41;100.00
30636;BME280;17400;52.392;9.750;2023-02-12T13:39:05;103151.41;;;9.41;100.00
30636;BME280;17400;52.392;9.750;2023-02-12T13:41:38;103148.50;;;9.21;100.00
30636;BME280;17400;52.392;9.750;2023-02-12T13:44:15;103148.84;;;9.28;100.00
30636;BME280;17400;52.392;9.750;2023-02-12T13:46:52;103147.19;;;9.37;100.00
30636;BME280;17400;52.392;9.750;2023-02-12T13:49:33;103144.56;;;9.25;100.00
30636;BME280;17400;52.392;9.750;2023-02-12T13:52:12;103134.31;;;9.08;100.00
30636;BME280;17400;52.392;9.750;2023-02-12T13:54:50;103135.38;;;9.16;100.00
30636;BME280;17400;52.392;9.750;2023-02-12T13:57:21;103131.41;;;9.21;100.00
30636;BME280;17400;52.392;9.750;2023-02-12T13:59:50;103136.47;;;9.14;100.00
30636;BME280;17400;52.392;9.750;2023-02-12T14:05:20;103130.19;;;9.25;100.00
30636;BME280;17400;52.392;9.750;2023-02-12T14:07:53;103137.31;;;9.26;100.00
30636;BME280;17400;52.392;9.750;2023-02-12T14:10:27;103140.00;;;9.26;100.00
30636;BME280;17400;52.392;9.750;2023-02-12T14:13:10;103136.81;;;9.21;100.00
30636;BME280;17400;52.392;9.750;2023-02-12T14:15:42;103143.44;;;9.28;100.00
30636;BME280;17400;52.392;9.750;2023-02-12T14:18:28;103137.78;;;9.31;100.00
30636;BME280;17400;52.392;9.750;2023-02-12T14:27:19;103147.59;;;9.32;100.00
30636;BME280;17400;52.392;9.750;2023-02-12T14:30:00;103141.50;;;9.19;100.00
30636;BME280;17400;52.392;9.750;2023-02-12T14:32:56;103149.84;;;9.27;100.00
30636;BME280;17400;52.392;9.750;2023-02-12T14:35:32;103150.31;;;9.32;100.00
30636;BME280;17400;52.392;9.750;2023-02-12T14:41:21;103158.34;;;9.22;100.00
30636;BME280;17400;52.392;9.750;2023-02-12T14:46:46;103153.66;;;9.24;100.00
30636;BME280;17400;52.392;9.750;2023-02-12T14:49:21;103155.50;;;9.24;100.00
30636;BME280;17400;52.392;9.750;2023-02-12T14:51:57;103157.69;;;9.30;100.00
30636;BME280;17400;52.392;9.750;2023-02-12T14:54:31;103149.56;;;9.30;100.00
30636;BME280;17400;52.392;9.750;2023-02-12T14:57:05;103159.06;;;9.24;100.00
30636;BME280;17400;52.392;9.750;2023-02-12T14:59:39;103154.06;;;9.20;100.00
30636;BME280;17400;52.392;9.750;2023-02-12T15:02:15;103151.22;;;9.21;100.00
30636;BME280;17400;52.392;9.750;2023-02-12T15:04:49;103152.28;;;9.30;100.00
30636;BME280;17400;52.392;9.750;2023-02-12T15:07:23;103157.44;;;9.33;100.00
30636;BME280;17400;52.392;9.750;2023-02-12T15:09:57;103155.44;;;9.35;100.00
30636;BME280;17400;52.392;9.750;2023-02-12T15:12:29;103150.31;;;9.32;100.00
30636;BME280;17400;52.392;9.750;2023-02-12T15:15:03;103151.22;;;9.21;100.00
30636;BME280;17400;52.392;9.750;2023-02-12T15:17:40;103152.06;;;9.22;100.00
30636;BME280;17400;52.392;9.750;2023-02-12T15:20:18;103154.53;;;9.25;100.00
30636;BME280;17400;52.392;9.750;2023-02-12T15:22:49;103152.28;;;9.30;100.00
30636;BME280;17400;52.392;9.750;2023-02-12T15:25:22;103157.09;;;9.26;100.00
30636;BME280;17400;52.392;9.750;2023-02-12T15:27:54;103156.63;;;9.21;100.00
30636;BME280;17400;52.392;9.750;2023-02-12T15:30:28;103159.31;;;9.21;100.00
30636;BME280;17400;52.392;9.750;2023-02-12T15:33:03;103158.78;;;9.27;100.00
30636;BME280;17400;52.392;9.750;2023-02-12T15:35:34;103157.34;;;9.23;100.00
30636;BME280;17400;52.392;9.750;2023-02-12T15:38:04;103152.06;;;9.22;100.00
30636;BME280;17400;52.392;9.750;2023-02-12T15:40:33;103160.66;;;9.27;100.00
30636;BME280;17400;52.392;9.750;2023-02-12T15:43:03;103155.97;;;9.29;100.00
30636;BME280;17400;52.392;9.750;2023-02-12T15:45:33;103161.25;;;9.30;100.00
30636;BME280;17400;52.392;9.750;2023-02-12T15:48:12;103159.66;;;9.28;100.00
30636;BME280;17400;52.392;9.750;2023-02-12T15:50:49;103158.41;;;9.32;100.00
30636;BME280;17400;52.392;9.750;2023-02-12T15:53:19;103161.63;;;9.26;100.00
30636;BME280;17400;52.392;9.750;2023-02-12T15:55:49;103155.25;;;9.27;100.00
30636;BME280;17400;52.392;9.750;2023-02-12T15:58:20;103157.16;;;9.36;100.00
30636;BME280;17400;52.392;9.750;2023-02-12T16:00:53;103154.56;;;9.46;100.00
30636;BME280;17400;52.392;9.750;2023-02-12T16:03:27;103154.44;;;9.47;100.00
30636;BME280;17400;52.392;9.750;2023-02-12T16:06:00;103158.13;;;9.46;100.00
30636;BME280;17400;52.392;9.750;2023-02-12T16:08:30;103146.69;;;9.43;100.00
30636;BME280;17400;52.392;9.750;2023-02-12T16:11:00;103158.56;;;9.30;100.00
30636;BME280;17400;52.392;9.750;2023-02-12T16:13:44;103151.56;;;9.28;100.00
30636;BME280;17400;52.392;9.750;2023-02-12T16:16:19;103150.94;;;9.24;100.00
30636;BME280;17400;52.392;9.750;2023-02-12T16:19:04;103149.75;;;9.17;100.00
30636;BME280;17400;52.392;9.750;2023-02-12T16:21:35;103154.63;;;9.23;100.00
30636;BME280;17400;52.392;9.750;2023-02-12T16:24:27;103159.47;;;9.20;100.00
30636;BME280;17400;52.392;9.750;2023-02-12T16:26:57;103161.91;;;9.23;100.00
30636;BME280;17400;52.392;9.750;2023-02-12T16:29:29;103167.44;;;9.21;100.00
30636;BME280;17400;52.392;9.750;2023-02-12T16:32:00;103165.63;;;9.10;100.00
30636;BME280;17400;52.392;9.750;2023-02-12T16:34:33;103164.28;;;9.05;100.00
30636;BME280;17400;52.392;9.750;2023-02-12T16:37:03;103162.44;;;9.05;100.00
30636;BME280;17400;52.392;9.750;2023-02-12T16:43:13;103172.16;;;8.96;100.00
30636;BME280;17400;52.392;9.750;2023-02-12T16:45:48;103174.22;;;9.04;100.00
30636;BME280;17400;52.392;9.750;2023-02-12T16:48:20;103173.38;;;9.04;100.00
30636;BME280;17400;52.392;9.750;2023-02-12T16:50:55;103176.44;;;8.99;100.00
30636;BME280;17400;52.392;9.750;2023-02-12T16:53:38;103179.38;;;9.07;100.00
30636;BME280;17400;52.392;9.750;2023-02-12T16:56:15;103180.34;;;9.17;100.00
30636;BME280;17400;52.392;9.750;2023-02-12T16:58:48;103179.09;;;9.22;100.00
30636;BME280;17400;52.392;9.750;2023-02-12T17:01:31;103183.34;;;9.36;100.00
30636;BME280;17400;52.392;9.750;2023-02-12T17:04:03;103184.19;;;9.47;100.00
30636;BME280;17400;52.392;9.750;2023-02-12T17:06:34;103174.00;;;9.40;100.00
30636;BME280;17400;52.392;9.750;2023-02-12T17:09:02;103172.69;;;9.34;100.00
30636;BME280;17400;52.392;9.750;2023-02-12T17:11:34;103182.63;;;9.33;100.00
30636;BME280;17400;52.392;9.750;2023-02-12T17:14:03;103184.13;;;9.26;100.00
30636;BME280;17400;52.392;9.750;2023-02-12T17:16:31;103181.56;;;9.25;100.00
30636;BME280;17400;52.392;9.750;2023-02-12T17:18:59;103188.66;;;9.26;100.00
30636;BME280;17400;52.392;9.750;2023-02-12T17:21:28;103184.97;;;9.27;100.00
30636;BME280;17400;52.392;9.750;2023-02-12T17:23:59;103184.97;;;9.27;100.00
30636;BME280;17400;52.392;9.750;2023-02-12T17:26:26;103187.41;;;9.30;100.00
30636;BME280;17400;52.392;9.750;2023-02-12T17:28:54;103184.13;;;9.26;100.00
30636;BME280;17400;52.392;9.750;2023-02-12T17:31:33;103188.41;;;9.29;100.00
30636;BME280;17400;52.392;9.750;2023-02-12T17:34:03;103186.97;;;9.25;100.00
30636;BME280;17400;52.392;9.750;2023-02-12T17:36:31;103187.19;;;9.22;100.00
30636;BME280;17400;52.392;9.750;2023-02-12T17:39:02;103181.66;;;9.23;100.00
30636;BME280;17400;52.392;9.750;2023-02-12T17:41:31;103194.81;;;9.28;100.00
30636;BME280;17400;52.392;9.750;2023-02-12T17:43:59;103191.50;;;9.24;100.00
30636;BME280;17400;52.392;9.750;2023-02-12T17:46:28;103196.28;;;9.21;100.00
30636;BME280;17400;52.392;9.750;2023-02-12T17:48:58;103190.88;;;9.21;100.00
30636;BME280;17400;52.392;9.750;2023-02-12T17:51:26;103209.34;;;9.15;100.00
30636;BME280;17400;52.392;9.750;2023-02-12T17:53:54;103205.41;;;9.20;100.00
30636;BME280;17400;52.392;9.750;2023-02-12T17:56:23;103208.44;;;9.26;100.00
30636;BME280;17400;52.392;9.750;2023-02-12T17:58:52;103208.59;;;9.25;100.00
30636;BME280;17400;52.392;9.750;2023-02-12T18:01:21;103213.25;;;9.23;100.00
30636;BME280;17400;52.392;9.750;2023-02-12T18:03:50;103216.78;;;9.23;100.00
30636;BME280;17400;52.392;9.750;2023-02-12T18:06:23;103220.50;;;9.22;100.00
30636;BME280;17400;52.392;9.750;2023-02-12T18:08:51;103210.31;;;9.14;100.00
30636;BME280;17400;52.392;9.750;2023-02-12T18:11:19;103213.16;;;9.13;100.00
30636;BME280;17400;52.392;9.750;2023-02-12T18:13:50;103214.75;;;9.15;100.00
30636;BME280;17400;52.392;9.750;2023-02-12T18:16:19;103213.59;;;9.18;100.00
30636;BME280;17400;52.392;9.750;2023-02-12T18:18:48;103221.63;;;9.20;100.00
30636;BME280;17400;52.392;9.750;2023-02-12T18:21:16;103214.50;;;9.19;100.00
30636;BME280;17400;52.392;9.750;2023-02-12T18:23:43;103216.72;;;9.13;100.00
30636;BME280;17400;52.392;9.750;2023-02-12T18:26:13;103208.59;;;9.13;100.00
30636;BME280;17400;52.392;9.750;2023-02-12T18:28:41;103211.66;;;9.09;100.00
30636;BME280;17400;52.392;9.750;2023-02-12T18:31:11;103201.47;;;9.12;100.00
30636;BME280;17400;52.392;9.750;2023-02-12T18:33:40;103208.47;;;9.15;100.00
30636;BME280;17400;52.392;9.750;2023-02-12T18:36:10;103193.22;;;9.14;100.00
30636;BME280;17400;52.392;9.750;2023-02-12T18:38:40;103193.13;;;9.15;100.00
30636;BME280;17400;52.392;9.750;2023-02-12T18:41:12;103196.69;;;9.16;100.00
30636;BME280;17400;52.392;9.750;2023-02-12T18:43:41;103190.28;;;9.17;100.00
30636;BME280;17400;52.392;9.750;2023-02-12T18:46:12;103191.13;;;9.29;100.00
30636;BME280;17400;52.392;9.750;2023-02-12T18:48:40;103191.13;;;9.29;100.00
30636;BME280;17400;52.392;9.750;2023-02-12T18:51:13;103192.59;;;9.33;100.00
30636;BME280;17400;52.392;9.750;2023-02-12T18:53:41;103195.16;;;9.34;100.00
30636;BME280;17400;52.392;9.750;2023-02-12T18:56:10;103195.28;;;9.33;100.00
30636;BME280;17400;52.392;9.750;2023-02-12T18:58:38;103192.44;;;9.34;100.00
30636;BME280;17400;52.392;9.750;2023-02-12T19:01:15;103184.19;;;9.36;100.00
30636;BME280;17400;52.392;9.750;2023-02-12T19:03:44;103185.66;;;9.40;100.00
30636;BME280;17400;52.392;9.750;2023-02-12T19:06:13;103193.78;;;9.40;100.00
30636;BME280;17400;52.392;9.750;2023-02-12T19:08:41;103188.75;;;9.36;100.00
30636;BME280;17400;52.392;9.750;2023-02-12T19:11:11;103188.31;;;9.19;100.00
30636;BME280;17400;52.392;9.750;2023-02-12T19:13:41;103194.59;;;9.20;100.00
30636;BME280;17400;52.392;9.750;2023-02-12T19:16:11;103186.97;;;9.25;100.00
30636;BME280;17400;52.392;9.750;2023-02-12T19:18:40;103194.81;;;9.28;100.00
30636;BME280;17400;52.392;9.750;2023-02-12T19:21:10;103195.66;;;9.28;100.00
30636;BME280;17400;52.392;9.750;2023-02-12T19:23:38;103203.28;;;9.23;100.00
30636;BME280;17400;52.392;9.750;2023-02-12T19:26:08;103206.72;;;9.25;100.00
30636;BME280;17400;52.392;9.750;2023-02-12T19:28:37;103206.25;;;9.20;100.00
30636;BME280;17400;52.392;9.750;2023-02-12T19:31:09;103203.81;;;9.06;100.00
30636;BME280;17400;52.392;9.750;2023-02-12T19:33:42;103209.72;;;9.11;100.00
30636;BME280;17400;52.392;9.750;2023-02-12T19:36:12;103211.16;;;9.15;100.00
30636;BME280;17400;52.392;9.750;2023-02-12T19:38:40;103218.03;;;9.19;100.00
30636;BME280;17400;52.392;9.750;2023-02-12T19:41:09;103213.13;;;9.24;100.00
30636;BME280;17400;52.392;9.750;2023-02-12T19:43:38;103214.56;;;9.28;100.00
30636;BME280;17400;52.392;9.750;2023-02-12T19:46:07;103220.59;;;9.32;100.00
30636;BME280;17400;52.392;9.750;2023-02-12T19:48:36;103216.91;;;9.33;100.00
30636;BME280;17400;52.392;9.750;2023-02-12T19:51:06;103214.91;;;9.35;100.00
30636;BME280;17400;52.392;9.750;2023-02-12T19:53:35;103214.69;;;9.38;100.00
30636;BME280;17400;52.392;9.750;2023-02-12T19:56:03;103207.34;;;9.29;100.00
30636;BME280;17400;52.392;9.750;2023-02-12T19:58:32;103217.16;;;9.30;100.00
30636;BME280;17400;52.392;9.750;2023-02-12T20:01:06;103218.25;;;9.27;100.00
30636;BME280;17400;52.392;9.750;2023-02-12T20:03:34;103227.84;;;9.31;100.00
30636;BME280;17400;52.392;9.750;2023-02-12T20:06:06;103223.16;;;9.33;100.00
30636;BME280;17400;52.392;9.750;2023-02-12T20:08:36;103221.44;;;9.32;100.00
30636;BME280;17400;52.392;9.750;2023-02-12T20:11:04;103225.38;;;9.28;100.00
30636;BME280;17400;52.392;9.750;2023-02-12T20:13:35;103218.88;;;9.31;100.00
30636;BME280;17400;52.392;9.750;2023-02-12T20:16:04;103224.03;;;9.34;100.00
30636;BME280;17400;52.392;9.750;2023-02-12T20:18:33;103225.03;;;9.33;100.00
30636;BME280;17400;52.392;9.750;2023-02-12T20:21:01;103231.28;;;9.33;100.00
30636;BME280;17400;52.392;9.750;2023-02-12T20:23:35;103237.66;;;9.32;100.00
30636;BME280;17400;52.392;9.750;2023-02-12T20:26:03;103237.56;;;9.34;100.00
30636;BME280;17400;52.392;9.750;2023-02-12T20:28:32;103240.00;;;9.37;100.00
30636;BME280;17400;52.392;9.750;2023-02-12T20:31:06;103234.31;;;9.40;100.00
30636;BME280;17400;52.392;9.750;2023-02-12T20:33:34;103232.72;;;9.38;100.00
30636;BME280;17400;52.392;9.750;2023-02-12T20:36:07;103232.59;;;9.39;100.00
30636;BME280;17400;52.392;9.750;2023-02-12T20:38:36;103240.00;;;9.37;100.00
30636;BME280;17400;52.392;9.750;2023-02-12T20:41:05;103236.56;;;9.35;100.00
30636;BME280;17400;52.392;9.750;2023-02-12T20:43:34;103224.03;;;9.34;100.00
30636;BME280;17400;52.392;9.750;2023-02-12T20:46:03;103221.06;;;9.37;100.00
30636;BME280;17400;52.392;9.750;2023-02-12T20:48:32;103221.69;;;9.41;100.00
30636;BME280;17400;52.392;9.750;2023-02-12T20:51:03;103218.84;;;9.42;100.00
30636;BME280;17400;52.392;9.750;2023-02-12T20:53:32;103223.72;;;9.48;100.00
30636;BME280;17400;52.392;9.750;2023-02-12T20:56:04;103222.09;;;9.57;100.00
30636;BME280;17400;52.392;9.750;2023-02-12T20:58:32;103216.31;;;9.62;100.00
30636;BME280;17400;52.392;9.750;2023-02-12T21:01:04;103217.16;;;9.62;100.00
30636;BME280;17400;52.392;9.750;2023-02-12T21:03:32;103211.16;;;9.59;100.00
30636;BME280;17400;52.392;9.750;2023-02-12T21:05:59;103216.09;;;9.54;100.00
30636;BME280;17400;52.392;9.750;2023-02-12T21:08:27;103226.19;;;9.52;100.00
30636;BME280;17400;52.392;9.750;2023-02-12T21:10:59;103220.56;;;9.43;100.00
30636;BME280;17400;52.392;9.750;2023-02-12T21:13:28;103212.69;;;9.40;100.00
30636;BME280;17400;52.392;9.750;2023-02-12T21:16:04;103217.50;;;9.37;100.00
30636;BME280;17400;52.392;9.750;2023-02-12T21:18:32;103206.69;;;9.37;100.00
30636;BME280;17400;52.392;9.750;2023-02-12T21:21:01;103209.28;;;9.38;100.00
30636;BME280;17400;52.392;9.750;2023-02-12T21:23:29;103212.69;;;9.40;100.00
30636;BME280;17400;52.392;9.750;2023-02-12T21:26:01;103214.91;;;9.35;100.00
30636;BME280;17400;52.392;9.750;2023-02-12T21:28:31;103211.25;;;9.36;100.00
30636;BME280;17400;52.392;9.750;2023-02-12T21:31:04;103209.50;;;9.35;100.00
30636;BME280;17400;52.392;9.750;2023-02-12T21:33:32;103205.22;;;9.32;100.00
30636;BME280;17400;52.392;9.750;2023-02-12T21:36:04;103210.63;;;9.32;100.00
30636;BME280;17400;52.392;9.750;2023-02-12T21:38:33;103205.13;;;9.34;100.00
30636;BME280;17400;52.392;9.750;2023-02-12T21:41:08;103211.25;;;9.36;100.00
30636;BME280;17400;52.392;9.750;2023-02-12T21:43:38;103204.09;;;9.35;100.00
30636;BME280;17400;52.392;9.750;2023-02-12T21:46:07;103200.69;;;9.33;100.00
30636;BME280;17400;52.392;9.750;2023-02-12T21:48:36;103200.41;;;9.36;100.00
30636;BME280;17400;52.392;9.750;2023-02-12T21:51:04;103202.16;;;9.37;100.00
30636;BME280;17400;52.392;9.750;2023-02-12T21:53:32;103201.16;;;9.38;100.00
30636;BME280;17400;52.392;9.750;2023-02-12T21:56:01;103199.44;;;9.37;100.00
30636;BME280;17400;52.392;9.750;2023-02-12T21:58:29;103196.13;;;9.33;100.00
30636;BME280;17400;52.392;9.750;2023-02-12T22:01:05;103191.34;;;9.37;100.00
30636;BME280;17400;52.392;9.750;2023-02-12T22:03:33;103197.00;;;9.34;100.00
30636;BME280;17400;52.392;9.750;2023-02-12T22:06:03;103191.00;;;9.30;100.00
30636;BME280;17400;52.392;9.750;2023-02-12T22:08:31;103187.41;;;9.30;100.00
30636;BME280;17400;52.392;9.750;2023-02-12T22:11:00;103193.81;;;9.29;100.00
30636;BME280;17400;52.392;9.750;2023-02-12T22:13:30;103195.91;;;9.25;100.00
30636;BME280;17400;52.392;9.750;2023-02-12T22:16:07;103190.88;;;9.21;100.00
30636;BME280;17400;52.392;9.750;2023-02-12T22:18:35;103187.31;;;9.20;100.00
30636;BME280;17400;52.392;9.750;2023-02-12T22:21:04;103195.44;;;9.20;100.00
30636;BME280;17400;52.392;9.750;2023-02-12T22:23:33;103192.88;;;9.19;100.00
30636;BME280;17400;52.392;9.750;2023-02-12T22:26:05;103188.44;;;9.17;100.00
30636;BME280;17400;52.392;9.750;2023-02-12T22:28:37;103189.41;;;9.16;100.00
30636;BME280;17400;52.392;9.750;2023-02-12T22:31:08;103191.41;;;9.14;100.00
30636;BME280;17400;52.392;9.750;2023-02-12T22:33:36;103184.00;;;9.16;100.00
30636;BME280;17400;52.392;9.750;2023-02-12T22:36:08;103193.72;;;9.19;100.00
30636;BME280;17400;52.392;9.750;2023-02-12T22:38:36;103188.06;;;9.22;100.00
30636;BME280;17400;52.392;9.750;2023-02-12T22:41:05;103194.47;;;9.21;100.00
30636;BME280;17400;52.392;9.750;2023-02-12T22:43:34;103192.38;;;9.13;100.00
30636;BME280;17400;52.392;9.750;2023-02-12T22:46:03;103199.03;;;9.09;100.00
30636;BME280;17400;52.392;9.750;2023-02-12T22:48:32;103187.88;;;9.03;100.00
30636;BME280;17400;52.392;9.750;2023-02-12T22:51:07;103199.91;;;8.98;100.00